Time;durP1;ratioP1;P1;durP2;ratioP2;P2;SDS_P1;SDS_P2;PMS_P1;PMS_P2;Temp;Humidity;BMP_temperature;BMP_pressure;BME280_temperature;BME280_humidity;BME280_pressure;Samples;Min_cycle;Max_cycle;Signal;HPM_P1;HPM_P2
2022/01/17 00:01:18;;;;;;;9.03;8.13;;;5.50;99.90;;;;;;5053157;28;20438;-55
2022/01/17 00:03:45;;;;;;;10.37;8.47;;;5.50;99.90;;;;;;5053548;28;20432;-59
2022/01/17 00:06:11;;;;;;;9.90;8.57;;;5.50;99.90;;;;;;5053466;28;20508;-58
2022/01/17 00:08:41;;;;;;;10.73;9.07;;;5.40;99.90;;;;;;5053218;28;20445;-55
2022/01/17 00:11:08;;;;;;;10.27;8.73;;;5.60;99.90;;;;;;5052850;28;20441;-58
2022/01/17 00:13:33;;;;;;;9.53;7.83;;;5.70;99.90;;;;;;5053361;28;20500;-54
2022/01/17 00:16:10;;;;;;;10.20;8.77;;;5.70;99.90;;;;;;5052973;28;20486;-57
2022/01/17 00:21:02;;;;;;;10.97;8.97;;;5.50;99.90;;;;;;5053235;28;20428;-58
2022/01/17 00:23:28;;;;;;;8.87;7.30;;;5.40;99.90;;;;;;5053223;28;20779;-58
2022/01/17 00:25:53;;;;;;;9.63;8.43;;;5.50;99.90;;;;;;5052642;28;20456;-57
2022/01/17 00:28:19;;;;;;;9.33;8.40;;;5.30;99.90;;;;;;5034980;28;20171;-58
2022/01/17 00:30:45;;;;;;;9.87;8.83;;;5.30;99.90;;;;;;5052604;28;20568;-57
2022/01/17 00:33:11;;;;;;;9.70;8.70;;;5.40;99.90;;;;;;5052368;28;20206;-56
2022/01/17 00:35:37;;;;;;;8.70;7.73;;;5.70;99.90;;;;;;5052847;28;20432;-58
2022/01/17 00:38:04;;;;;;;10.07;7.87;;;5.80;99.90;;;;;;5052859;28;20199;-58
2022/01/17 00:40:30;;;;;;;10.93;8.70;;;6.00;99.90;;;;;;5052253;28;20951;-59
2022/01/17 00:42:56;;;;;;;10.33;8.60;;;6.20;99.90;;;;;;5052676;28;20744;-58
2022/01/17 00:45:28;;;;;;;9.60;7.83;;;6.10;99.90;;;;;;5052925;28;20439;-58
2022/01/17 00:48:00;;;;;;;10.23;7.67;;;5.80;99.90;;;;;;5053156;28;20404;-57
2022/01/17 00:50:27;;;;;;;9.63;8.63;;;5.80;99.90;;;;;;5035504;28;20435;-54
2022/01/17 00:52:53;;;;;;;8.47;7.57;;;5.80;99.90;;;;;;5052705;28;20813;-57
2022/01/17 00:55:18;;;;;;;10.00;8.37;;;6.00;99.90;;;;;;5052593;28;20402;-59
2022/01/17 00:57:44;;;;;;;8.70;7.30;;;6.00;99.90;;;;;;5052796;28;20205;-58
2022/01/17 01:00:11;;;;;;;7.20;6.50;;;6.10;99.90;;;;;;5052314;28;20193;-56
2022/01/17 01:02:37;;;;;;;7.60;6.80;;;6.20;99.90;;;;;;5052514;28;20678;-59
2022/01/17 01:05:05;;;;;;;8.83;7.90;;;6.20;99.90;;;;;;5046314;28;20414;-59
2022/01/17 01:07:31;;;;;;;7.50;6.80;;;6.30;99.90;;;;;;5032932;28;20419;-58
2022/01/17 01:10:06;;;;;;;8.50;7.20;;;6.30;99.90;;;;;;5041009;28;20980;-57
2022/01/17 01:12:32;;;;;;;9.40;8.40;;;6.40;99.90;;;;;;5052827;28;20482;-59
2022/01/17 01:14:57;;;;;;;10.63;9.47;;;6.10;99.90;;;;;;5052841;28;20914;-59
2022/01/17 01:17:35;;;;;;;11.90;9.60;;;5.90;99.90;;;;;;5052259;28;20963;-55
2022/01/17 01:28:11;;;;;;;13.43;10.67;;;6.00;99.90;;;;;;5052454;28;20473;-55
2022/01/17 01:30:41;;;;;;;12.77;10.80;;;6.00;99.90;;;;;;5052122;28;20460;-56
2022/01/17 01:33:07;;;;;;;14.57;12.30;;;6.00;99.90;;;;;;5052469;28;20162;-58
2022/01/17 01:35:34;;;;;;;17.20;11.87;;;5.80;99.90;;;;;;5052536;28;20417;-57
2022/01/17 01:38:00;;;;;;;15.47;13.87;;;5.80;99.90;;;;;;5052478;28;20195;-57
2022/01/17 01:40:27;;;;;;;20.57;14.60;;;5.60;99.90;;;;;;5074275;22;20501;-55
2022/01/17 01:42:53;;;;;;;17.27;15.00;;;5.60;99.90;;;;;;5032855;28;20909;-61
2022/01/17 01:45:21;;;;;;;17.53;14.07;;;5.70;99.90;;;;;;5036818;28;20393;-60
2022/01/17 01:47:47;;;;;;;15.43;12.93;;;5.80;99.90;;;;;;5036449;28;20398;-59
2022/01/17 01:50:13;;;;;;;15.33;12.43;;;5.80;99.90;;;;;;5036371;28;20425;-60
2022/01/17 01:52:41;;;;;;;17.03;12.70;;;5.70;99.90;;;;;;5036432;28;20423;-60
2022/01/17 01:55:09;;;;;;;16.50;13.07;;;5.70;99.90;;;;;;5035578;28;20401;-58
2022/01/17 01:57:35;;;;;;;15.33;12.47;;;5.70;99.90;;;;;;5036160;28;20460;-61
2022/01/17 02:00:01;;;;;;;15.40;12.97;;;5.70;99.90;;;;;;5035946;28;20403;-61
2022/01/17 02:02:26;;;;;;;14.53;12.43;;;5.60;99.90;;;;;;5036008;28;20167;-61
2022/01/17 02:04:52;;;;;;;13.80;12.37;;;5.60;99.90;;;;;;5036074;28;20164;-60
2022/01/17 02:07:19;;;;;;;12.73;11.27;;;5.70;99.90;;;;;;5036114;28;20233;-61
2022/01/17 02:09:46;;;;;;;12.23;10.67;;;5.80;99.90;;;;;;5036196;28;20160;-61
2022/01/17 02:12:13;;;;;;;12.67;10.83;;;5.90;99.90;;;;;;5035284;28;20418;-60
2022/01/17 02:14:39;;;;;;;14.90;11.70;;;5.90;99.90;;;;;;5035603;28;20411;-61
2022/01/17 02:17:05;;;;;;;14.13;11.03;;;5.90;99.90;;;;;;5035667;28;20503;-61
2022/01/17 02:19:33;;;;;;;12.17;10.87;;;5.80;99.90;;;;;;5035634;28;20242;-61
2022/01/17 02:21:59;;;;;;;11.60;10.40;;;5.80;99.90;;;;;;5035440;28;20798;-60
2022/01/17 02:24:25;;;;;;;12.67;10.00;;;5.90;99.90;;;;;;5028060;28;20418;-60
2022/01/17 02:26:52;;;;;;;11.63;10.07;;;6.00;99.90;;;;;;5004246;28;20169;-60
2022/01/17 02:29:18;;;;;;;11.37;9.90;;;6.00;99.90;;;;;;4996430;28;20780;-58
2022/01/17 02:31:46;;;;;;;11.87;10.53;;;6.00;99.90;;;;;;4995834;28;20424;-60
2022/01/17 02:34:12;;;;;;;10.97;9.50;;;6.00;99.90;;;;;;4996004;28;20542;-61
2022/01/17 02:36:38;;;;;;;13.50;11.13;;;6.00;99.90;;;;;;4996007;28;21023;-59
2022/01/17 02:39:04;;;;;;;14.27;11.17;;;5.90;99.90;;;;;;4995827;28;20976;-60
2022/01/17 02:41:32;;;;;;;11.80;10.10;;;5.80;99.90;;;;;;5021878;28;20451;-60
2022/01/17 02:44:00;;;;;;;10.90;9.23;;;5.90;99.90;;;;;;5035193;28;20406;-60
2022/01/17 02:46:26;;;;;;;10.13;9.03;;;6.00;99.90;;;;;;5035072;28;20403;-59
2022/01/17 02:48:52;;;;;;;13.23;9.87;;;6.10;99.90;;;;;;5035078;28;20473;-60
2022/01/17 02:51:18;;;;;;;11.83;9.57;;;6.10;99.90;;;;;;5034967;28;20184;-59
2022/01/17 02:53:44;;;;;;;12.67;10.00;;;6.20;99.90;;;;;;5035176;28;20524;-60
2022/01/17 02:56:11;;;;;;;11.83;9.87;;;6.00;99.90;;;;;;5029748;28;20223;-59
2022/01/17 02:58:40;;;;;;;14.17;11.10;;;5.90;99.90;;;;;;5003966;28;20242;-60
2022/01/17 03:01:11;;;;;;;15.73;11.57;;;5.90;99.90;;;;;;5014927;28;20414;-59
2022/01/17 03:03:37;;;;;;;12.87;11.30;;;6.00;99.90;;;;;;5015338;28;20392;-60
2022/01/17 03:06:04;;;;;;;14.33;11.10;;;6.00;99.90;;;;;;5014625;28;20401;-59
2022/01/17 03:08:32;;;;;;;12.43;10.77;;;6.00;99.90;;;;;;5014826;28;20408;-60
2022/01/17 03:11:00;;;;;;;11.33;9.47;;;6.20;99.90;;;;;;5023340;28;20433;-60
2022/01/17 03:13:32;;;;;;;12.23;10.17;;;6.20;99.90;;;;;;5034849;28;20418;-59
2022/01/17 03:16:04;;;;;;;13.37;10.83;;;6.20;99.90;;;;;;5034557;28;20930;-60
2022/01/17 03:18:32;;;;;;;11.30;9.80;;;6.30;99.90;;;;;;5034917;28;20434;-60
2022/01/17 03:20:59;;;;;;;12.80;9.87;;;6.40;99.90;;;;;;5034719;28;20469;-60
2022/01/17 03:23:26;;;;;;;13.83;11.00;;;6.40;99.90;;;;;;5034547;28;20399;-58
2022/01/17 03:25:52;;;;;;;13.20;11.00;;;6.30;99.90;;;;;;5034049;28;20449;-59
2022/01/17 03:28:18;;;;;;;12.80;10.20;;;6.40;99.90;;;;;;5034358;28;20833;-59
2022/01/17 03:30:44;;;;;;;15.10;10.07;;;6.40;99.90;;;;;;5034726;28;20423;-60
2022/01/17 03:33:12;;;;;;;11.73;9.27;;;6.30;99.90;;;;;;5034394;28;20214;-58
2022/01/17 03:35:39;;;;;;;11.70;9.83;;;6.30;99.90;;;;;;5034541;28;20406;-62
2022/01/17 03:38:10;;;;;;;11.53;10.23;;;6.30;99.90;;;;;;5034332;28;20450;-60
2022/01/17 03:40:36;;;;;;;12.30;10.03;;;6.30;99.90;;;;;;5033276;28;20442;-60
2022/01/17 03:43:03;;;;;;;8.60;7.70;;;6.30;99.90;;;;;;5034258;28;20452;-58
2022/01/17 03:45:29;;;;;;;10.33;8.60;;;6.10;99.90;;;;;;5030165;28;20413;-60
2022/01/17 03:47:55;;;;;;;10.20;8.43;;;6.10;99.90;;;;;;5007557;28;20416;-61
2022/01/17 03:50:24;;;;;;;13.47;10.30;;;6.20;99.90;;;;;;4994560;28;20203;-59
2022/01/17 03:52:50;;;;;;;12.93;11.03;;;6.20;99.90;;;;;;4994390;28;20408;-60
2022/01/17 03:55:18;;;;;;;9.87;8.87;;;6.20;99.90;;;;;;4994297;28;20401;-60
2022/01/17 03:57:44;;;;;;;13.13;10.70;;;6.40;99.90;;;;;;4994199;28;20443;-61
2022/01/17 04:00:15;;;;;;;10.23;8.40;;;6.20;99.90;;;;;;4994418;28;20507;-58
2022/01/17 04:02:41;;;;;;;12.80;10.60;;;6.20;99.90;;;;;;4994711;28;20388;-59
2022/01/17 04:05:08;;;;;;;12.17;9.50;;;6.20;99.90;;;;;;4994255;28;20407;-61
2022/01/17 04:07:33;;;;;;;10.10;9.00;;;6.20;99.90;;;;;;4994349;28;20483;-59
2022/01/17 04:09:59;;;;;;;13.70;11.37;;;6.10;99.90;;;;;;4996084;28;20939;-60
2022/01/17 04:12:24;;;;;;;9.80;8.43;;;6.00;99.90;;;;;;5033069;28;20258;-61
2022/01/17 04:14:54;;;;;;;10.30;9.13;;;6.10;99.90;;;;;;5033764;28;20182;-61
2022/01/17 04:17:20;;;;;;;12.57;9.17;;;6.00;99.90;;;;;;5034084;28;20229;-61
2022/01/17 04:19:51;;;;;;;11.33;9.30;;;6.00;99.90;;;;;;5033543;28;20942;-60
2022/01/17 04:22:17;;;;;;;12.80;10.17;;;6.10;99.90;;;;;;5033785;28;20391;-61
2022/01/17 04:24:42;;;;;;;10.90;9.43;;;5.90;99.90;;;;;;5033726;28;20405;-61
2022/01/17 04:27:08;;;;;;;12.30;8.70;;;6.00;99.90;;;;;;5033237;28;20167;-60
2022/01/17 04:29:35;;;;;;;11.57;10.10;;;5.90;99.90;;;;;;5033864;28;20651;-58
2022/01/17 04:32:02;;;;;;;11.63;9.87;;;5.80;99.90;;;;;;5033991;28;20187;-59
2022/01/17 04:34:27;;;;;;;12.50;10.60;;;5.70;99.90;;;;;;5033572;28;20405;-59
2022/01/17 04:36:53;;;;;;;11.93;10.57;;;5.70;99.90;;;;;;5033741;28;20402;-61
2022/01/17 04:39:20;;;;;;;13.20;10.33;;;5.60;99.90;;;;;;5033707;28;20171;-60
2022/01/17 04:41:45;;;;;;;11.70;9.70;;;5.50;99.90;;;;;;5033000;28;20703;-60
2022/01/17 04:46:55;;;;;;;14.20;9.83;;;5.60;99.90;;;;;;5033828;28;20563;-61
2022/01/17 04:49:21;;;;;;;12.47;11.07;;;5.60;99.90;;;;;;5033202;28;20402;-61
2022/01/17 04:51:52;;;;;;;12.33;10.60;;;5.80;99.90;;;;;;5033237;28;20707;-58
2022/01/17 04:56:53;;;;;;;10.83;9.63;;;5.90;99.90;;;;;;5033016;28;20386;-61
2022/01/17 04:59:18;;;;;;;12.20;10.10;;;5.90;99.90;;;;;;5033376;28;20451;-61
2022/01/17 05:01:44;;;;;;;10.97;9.87;;;6.00;99.90;;;;;;5033069;28;20945;-61
2022/01/17 05:04:10;;;;;;;12.77;9.87;;;5.90;99.90;;;;;;5033258;28;20678;-59
2022/01/17 05:06:35;;;;;;;14.53;10.10;;;6.00;99.90;;;;;;5033885;28;20174;-59
2022/01/17 05:09:03;;;;;;;9.63;8.20;;;6.00;99.90;;;;;;5001464;28;20168;-62
2022/01/17 05:11:30;;;;;;;10.03;9.00;;;6.10;99.90;;;;;;5025859;28;20663;-60
2022/01/17 05:13:56;;;;;;;11.50;8.90;;;6.00;99.90;;;;;;5033794;28;20877;-58
2022/01/17 05:16:29;;;;;;;11.60;9.20;;;5.90;99.90;;;;;;5033226;28;20415;-57
2022/01/17 05:21:39;;;;;;;12.07;10.33;;;6.00;99.90;;;;;;5037017;28;20455;-59
2022/01/17 05:24:05;;;;;;;11.63;10.30;;;6.00;99.90;;;;;;5036919;28;20406;-60
2022/01/17 05:26:30;;;;;;;12.37;10.63;;;6.00;99.90;;;;;;5036994;28;20402;-61
2022/01/17 05:28:56;;;;;;;10.73;9.60;;;6.00;99.90;;;;;;5037084;28;20648;-61
2022/01/17 05:31:22;;;;;;;12.10;10.00;;;6.10;99.90;;;;;;5024885;28;20929;-58
2022/01/17 05:33:47;;;;;;;12.27;10.47;;;6.10;99.90;;;;;;5036384;28;20164;-59
2022/01/17 05:36:13;;;;;;;14.30;10.37;;;6.00;99.90;;;;;;5020440;28;20188;-61
2022/01/17 05:38:38;;;;;;;10.03;7.97;;;6.00;99.90;;;;;;5016451;28;20195;-61
2022/01/17 05:41:04;;;;;;;11.27;9.20;;;5.70;99.90;;;;;;5026035;28;20203;-60
2022/01/17 05:43:29;;;;;;;11.10;9.83;;;5.70;99.90;;;;;;5036626;28;20647;-57
2022/01/17 05:45:55;;;;;;;12.70;10.30;;;5.80;99.90;;;;;;5018599;28;20219;-57
2022/01/17 05:48:21;;;;;;;11.37;10.17;;;5.80;99.90;;;;;;5037012;28;20164;-60
2022/01/17 05:50:46;;;;;;;10.83;9.17;;;5.60;99.90;;;;;;5037411;28;20272;-57
2022/01/17 05:53:13;;;;;;;10.93;8.73;;;5.60;99.90;;;;;;5037147;28;20167;-56
2022/01/17 05:55:40;;;;;;;12.90;9.33;;;5.60;99.90;;;;;;5036528;28;20174;-58
2022/01/17 05:58:06;;;;;;;10.20;8.37;;;5.60;99.90;;;;;;5036679;28;20473;-58
2022/01/17 06:00:31;;;;;;;10.27;8.50;;;5.60;99.90;;;;;;5037665;28;20426;-58
2022/01/17 06:02:57;;;;;;;9.00;8.10;;;5.70;99.90;;;;;;5036978;28;20469;-59
2022/01/17 06:05:23;;;;;;;12.20;9.20;;;5.80;99.90;;;;;;5036874;28;20190;-60
2022/01/17 06:07:49;;;;;;;11.50;9.33;;;5.90;99.90;;;;;;5036327;28;20584;-56
2022/01/17 06:10:14;;;;;;;9.37;8.50;;;5.80;99.90;;;;;;5036140;28;20196;-56
2022/01/17 06:12:40;;;;;;;10.60;8.53;;;5.90;99.90;;;;;;5035704;28;20655;-61
2022/01/17 06:15:06;;;;;;;9.83;8.50;;;6.00;99.90;;;;;;5036631;28;20186;-58
2022/01/17 06:17:32;;;;;;;9.23;7.73;;;6.00;99.90;;;;;;5036351;28;20329;-60
2022/01/17 06:19:57;;;;;;;10.13;8.93;;;6.10;99.90;;;;;;5036095;28;20442;-60
2022/01/17 06:22:23;;;;;;;10.43;9.03;;;6.20;99.90;;;;;;5036087;28;20517;-59
2022/01/17 06:24:48;;;;;;;10.10;8.40;;;6.20;99.90;;;;;;5036323;28;20199;-61
2022/01/17 06:27:15;;;;;;;8.33;7.43;;;6.20;99.90;;;;;;5041865;28;20688;-60
2022/01/17 06:29:40;;;;;;;10.23;8.67;;;6.20;99.90;;;;;;5037708;28;20233;-60
2022/01/17 06:32:07;;;;;;;11.93;9.70;;;6.20;99.90;;;;;;5037806;28;20778;-61
2022/01/17 06:34:33;;;;;;;11.00;9.00;;;6.30;99.90;;;;;;5038250;28;20169;-60
2022/01/17 06:36:58;;;;;;;10.13;7.40;;;6.30;99.90;;;;;;5036419;28;20493;-60
2022/01/17 06:39:24;;;;;;;10.23;9.13;;;6.30;99.90;;;;;;5024444;28;20180;-58
2022/01/17 06:41:50;;;;;;;9.60;8.43;;;6.30;99.90;;;;;;5019761;28;20220;-57
2022/01/17 06:44:17;;;;;;;8.50;7.63;;;6.20;99.90;;;;;;5016211;28;20641;-56
2022/01/17 06:46:42;;;;;;;9.03;8.13;;;6.20;99.90;;;;;;5015889;28;20912;-59
2022/01/17 06:49:08;;;;;;;10.00;7.77;;;6.10;99.90;;;;;;5015993;28;20460;-58
2022/01/17 06:51:35;;;;;;;10.33;8.63;;;6.00;99.90;;;;;;5015720;28;20226;-60
2022/01/17 06:54:01;;;;;;;11.47;8.90;;;5.90;99.90;;;;;;5015164;28;20885;-60
2022/01/17 06:56:26;;;;;;;9.03;8.10;;;6.00;99.90;;;;;;5014867;28;20463;-60
2022/01/17 06:58:52;;;;;;;11.37;8.80;;;5.90;99.90;;;;;;5015139;28;20250;-59
2022/01/17 07:01:20;;;;;;;8.50;7.60;;;6.00;99.90;;;;;;5015060;28;20188;-58
2022/01/17 07:03:47;;;;;;;9.07;7.30;;;5.80;99.90;;;;;;5014883;28;20187;-60
2022/01/17 07:06:13;;;;;;;8.80;7.90;;;5.70;99.90;;;;;;5015148;28;20927;-61
2022/01/17 07:08:38;;;;;;;10.97;9.13;;;6.00;99.90;;;;;;5015350;28;20439;-60
2022/01/17 07:11:05;;;;;;;10.00;9.00;;;6.10;99.90;;;;;;5024547;28;20708;-60
2022/01/17 07:13:31;;;;;;;11.47;8.40;;;6.10;99.90;;;;;;5028158;28;20169;-60
2022/01/17 07:15:57;;;;;;;12.13;10.60;;;6.30;99.90;;;;;;5015123;28;20450;-61
2022/01/17 07:18:22;;;;;;;14.10;11.03;;;6.40;99.90;;;;;;5015449;28;20483;-60
2022/01/17 07:20:48;;;;;;;13.77;10.17;;;6.30;99.90;;;;;;5014836;28;20867;-59
2022/01/17 07:23:15;;;;;;;13.87;11.80;;;6.40;99.90;;;;;;5014556;28;20246;-59
2022/01/17 07:25:41;;;;;;;13.63;11.63;;;6.40;99.90;;;;;;5014662;28;20187;-60
2022/01/17 07:28:08;;;;;;;10.70;9.60;;;6.40;99.90;;;;;;5014462;28;20404;-59
2022/01/17 07:30:35;;;;;;;7.67;6.43;;;6.40;99.90;;;;;;5015186;28;20188;-60
2022/01/17 07:33:02;;;;;;;9.40;8.50;;;6.20;99.90;;;;;;5014814;28;20456;-59
2022/01/17 07:35:31;;;;;;;11.60;10.50;;;6.30;99.90;;;;;;5014864;28;20407;-62
2022/01/17 07:37:57;;;;;;;8.30;7.47;;;6.30;99.90;;;;;;5015481;28;20841;-55
2022/01/17 07:40:23;;;;;;;9.47;7.60;;;6.20;99.90;;;;;;5041832;23;20553;-57
2022/01/17 07:42:48;;;;;;;8.23;7.30;;;6.30;99.90;;;;;;5053614;28;20241;-56
2022/01/17 07:45:15;;;;;;;9.60;7.40;;;6.40;99.90;;;;;;5053735;28;20444;-58
2022/01/17 07:47:57;;;;;;;7.63;6.87;;;6.10;99.90;;;;;;5053559;28;20174;-58
2022/01/17 07:50:24;;;;;;;6.53;5.83;;;6.00;99.90;;;;;;5053786;28;20386;-58
2022/01/17 07:52:52;;;;;;;7.33;6.63;;;5.90;99.90;;;;;;5019677;28;20756;-57
2022/01/17 07:55:19;;;;;;;7.70;6.43;;;6.00;99.90;;;;;;5053807;28;20405;-59
2022/01/17 07:57:45;;;;;;;7.37;6.37;;;6.20;99.90;;;;;;5053001;28;20965;-57
2022/01/17 08:00:14;;;;;;;8.30;6.53;;;6.20;99.90;;;;;;5053047;28;20433;-59
2022/01/17 08:02:39;;;;;;;7.57;6.30;;;6.00;99.90;;;;;;5053737;28;20433;-58
2022/01/17 08:05:07;;;;;;;6.90;6.20;;;6.00;99.90;;;;;;5053379;28;20406;-59
2022/01/17 08:07:33;;;;;;;7.17;6.47;;;6.10;99.90;;;;;;5053925;28;20721;-59
2022/01/17 08:09:59;;;;;;;7.90;7.10;;;6.30;99.90;;;;;;5053478;28;20406;-59
2022/01/17 08:12:24;;;;;;;7.63;6.93;;;6.30;99.90;;;;;;5052854;28;20286;-58
2022/01/17 08:14:50;;;;;;;14.43;7.60;;;6.40;99.90;;;;;;5052906;28;20201;-59
2022/01/17 08:17:15;;;;;;;8.17;7.17;;;6.40;99.90;;;;;;5053432;28;20228;-56
2022/01/17 08:19:41;;;;;;;7.30;6.60;;;6.40;99.90;;;;;;5053161;28;20641;-59
2022/01/17 08:22:08;;;;;;;7.80;6.50;;;6.50;99.90;;;;;;5053220;28;20710;-59
2022/01/17 08:24:34;;;;;;;10.20;7.60;;;6.50;99.90;;;;;;5053041;28;20433;-59
2022/01/17 08:27:01;;;;;;;7.87;7.00;;;6.50;99.90;;;;;;5052780;28;20410;-59
2022/01/17 08:29:28;;;;;;;8.87;6.83;;;6.60;99.90;;;;;;5052960;28;20406;-59
2022/01/17 08:31:55;;;;;;;8.30;7.47;;;6.60;99.90;;;;;;5053094;28;21029;-58
2022/01/17 08:34:21;;;;;;;7.07;6.40;;;6.60;99.90;;;;;;5053156;28;20898;-58
2022/01/17 08:36:47;;;;;;;7.60;6.90;;;6.50;99.90;;;;;;5053041;28;20946;-57
2022/01/17 08:39:13;;;;;;;7.63;6.93;;;6.60;99.90;;;;;;5053180;28;20452;-59
2022/01/17 08:41:43;;;;;;;7.07;5.87;;;6.80;99.90;;;;;;5052415;28;20345;-58
2022/01/17 08:44:10;;;;;;;7.27;5.80;;;7.10;99.90;;;;;;5052812;28;20418;-59
2022/01/17 08:46:36;;;;;;;10.73;6.40;;;6.70;99.90;;;;;;5053214;28;20441;-58
2022/01/17 08:49:02;;;;;;;5.83;5.20;;;6.60;99.90;;;;;;5053189;28;20439;-55
2022/01/17 08:51:27;;;;;;;7.00;5.80;;;6.20;99.90;;;;;;5053166;28;20202;-57
2022/01/17 08:53:53;;;;;;;7.13;6.53;;;6.20;99.90;;;;;;5054813;28;20976;-58
2022/01/17 08:56:19;;;;;;;6.00;5.40;;;6.30;99.90;;;;;;5057063;28;20218;-59
2022/01/17 08:58:44;;;;;;;6.47;5.73;;;6.60;99.90;;;;;;5056794;28;20234;-59
2022/01/17 09:01:13;;;;;;;7.17;6.20;;;6.70;99.90;;;;;;5057111;28;20266;-59
2022/01/17 09:03:42;;;;;;;7.10;5.77;;;6.50;99.90;;;;;;5057037;28;20171;-59
2022/01/17 09:06:07;;;;;;;6.80;6.20;;;6.40;99.90;;;;;;5056896;28;20504;-59
2022/01/17 09:08:33;;;;;;;5.90;5.40;;;6.40;99.90;;;;;;5056602;28;20405;-58
2022/01/17 09:10:58;;;;;;;6.87;6.17;;;6.30;99.90;;;;;;5056556;28;20606;-55
2022/01/17 09:13:25;;;;;;;6.33;5.70;;;6.40;99.90;;;;;;5056724;28;20165;-57
2022/01/17 09:15:52;;;;;;;6.07;5.53;;;6.90;99.90;;;;;;5044763;28;20223;-58
2022/01/17 09:18:20;;;;;;;6.57;5.47;;;7.20;99.90;;;;;;5036345;28;20453;-58
2022/01/17 09:20:47;;;;;;;7.80;4.90;;;7.40;99.90;;;;;;5036613;28;20451;-59
2022/01/17 09:23:13;;;;;;;5.97;5.43;;;7.50;99.90;;;;;;5031061;28;20424;-58
2022/01/17 09:25:38;;;;;;;5.97;4.80;;;7.40;99.90;;;;;;5035258;28;20411;-59
2022/01/17 09:28:04;;;;;;;8.03;4.77;;;7.50;99.90;;;;;;5036338;28;20411;-56
2022/01/17 09:30:30;;;;;;;5.03;4.53;;;7.40;99.90;;;;;;5036119;28;20170;-58
2022/01/17 09:32:56;;;;;;;6.77;5.03;;;7.30;99.90;;;;;;5036379;28;20172;-59
2022/01/17 09:35:21;;;;;;;5.63;5.13;;;7.30;99.90;;;;;;5036572;28;20172;-56
2022/01/17 09:37:47;;;;;;;5.47;4.87;;;7.50;99.90;;;;;;5036085;28;20695;-57
2022/01/17 09:40:13;;;;;;;5.07;4.57;;;7.60;99.90;;;;;;5036363;28;20166;-58
2022/01/17 09:42:39;;;;;;;4.37;3.80;;;7.60;99.90;;;;;;5054786;28;20289;-57
2022/01/17 09:45:07;;;;;;;4.90;4.50;;;7.60;99.90;;;;;;5055659;28;20173;-58
2022/01/17 09:47:34;;;;;;;4.50;4.10;;;7.40;99.90;;;;;;5055913;28;20173;-57
2022/01/17 09:50:06;;;;;;;5.67;4.30;;;7.50;99.90;;;;;;5056161;28;20408;-57
2022/01/17 09:52:36;;;;;;;4.57;4.17;;;7.60;99.90;;;;;;5055896;28;20509;-57
2022/01/17 09:55:04;;;;;;;6.40;4.40;;;7.60;99.90;;;;;;5055845;28;20409;-57
2022/01/17 09:57:31;;;;;;;4.50;4.10;;;7.60;99.90;;;;;;5055953;28;20447;-58
2022/01/17 09:59:57;;;;;;;4.33;3.93;;;7.90;99.90;;;;;;5054951;28;20419;-58
2022/01/17 10:02:23;;;;;;;6.43;4.00;;;7.80;99.90;;;;;;5055697;28;20424;-58
2022/01/17 10:04:49;;;;;;;5.53;4.27;;;7.70;99.90;;;;;;5055439;28;20164;-59
2022/01/17 10:07:14;;;;;;;5.63;4.13;;;7.90;99.90;;;;;;5055483;28;20541;-57
2022/01/17 10:09:43;;;;;;;4.50;3.70;;;8.10;99.90;;;;;;5055516;28;20157;-59
2022/01/17 10:12:10;;;;;;;5.83;4.60;;;8.40;99.90;;;;;;5055045;28;20707;-54
2022/01/17 10:14:56;;;;;;;4.63;4.20;;;8.50;99.90;;;;;;5055396;28;20430;-56
2022/01/17 10:17:22;;;;;;;24.70;5.73;;;8.60;99.90;;;;;;5055998;28;20450;-58
2022/01/17 10:20:00;;;;;;;5.17;3.93;;;8.60;99.90;;;;;;5055942;28;20399;-56
2022/01/17 10:22:36;;;;;;;3.30;3.00;;;8.60;99.90;;;;;;5056289;28;20424;-57
2022/01/17 10:25:51;;;;;;;3.70;2.90;;;8.80;99.90;;;;;;5057232;28;20869;-56
2022/01/17 10:36:43;;;;;;;4.73;3.37;;;8.50;99.90;;;;;;5055304;28;20381;-58
2022/01/17 10:39:09;;;;;;;2.90;2.60;;;8.60;99.90;;;;;;5055381;28;20480;-55
2022/01/17 10:41:35;;;;;;;3.10;2.80;;;8.60;99.90;;;;;;5054406;28;20471;-58
2022/01/17 10:44:00;;;;;;;4.13;3.17;;;8.50;99.90;;;;;;5055020;28;20174;-57
2022/01/17 10:46:27;;;;;;;3.00;2.70;;;8.60;99.90;;;;;;5054876;28;20628;-56
2022/01/17 10:48:53;;;;;;;3.50;2.93;;;8.70;99.90;;;;;;5054641;28;20166;-55
2022/01/17 10:51:32;;;;;;;2.83;2.63;;;8.50;99.90;;;;;;5054859;28;20428;-55
2022/01/17 10:53:58;;;;;;;2.17;2.07;;;8.30;99.90;;;;;;5055109;28;20404;-56
2022/01/17 10:56:26;;;;;;;4.53;2.67;;;8.00;99.90;;;;;;5054461;28;20787;-57
2022/01/17 10:59:04;;;;;;;3.60;2.60;;;8.10;99.90;;;;;;5053835;28;20459;-55
2022/01/17 11:01:37;;;;;;;2.80;2.53;;;8.20;99.90;;;;;;5054286;28;20427;-57
2022/01/17 11:04:13;;;;;;;2.43;2.23;;;8.30;99.90;;;;;;5054380;28;20408;-54
2022/01/17 11:06:47;;;;;;;4.97;3.60;;;8.10;99.90;;;;;;5054997;28;20387;-56
2022/01/17 11:09:13;;;;;;;4.90;4.23;;;7.90;99.90;;;;;;5054503;28;20487;-55
2022/01/17 11:11:40;;;;;;;5.17;4.70;;;7.70;99.90;;;;;;5054039;28;20830;-59
2022/01/17 11:14:09;;;;;;;6.63;4.57;;;7.50;99.90;;;;;;5043252;28;20415;-58
2022/01/17 11:16:36;;;;;;;4.93;4.50;;;7.60;99.90;;;;;;5033809;28;20409;-57
2022/01/17 11:20:02;;;;;;;6.53;5.73;;;7.60;99.90;;;;;;5034193;28;20452;-57
2022/01/17 11:21:49;;;;;;;5.10;4.50;;;7.60;99.90;;;;;;5034045;28;21060;-57
2022/01/17 11:24:15;;;;;;;6.73;5.03;;;7.80;99.90;;;;;;5034333;28;20436;-58
2022/01/17 11:26:41;;;;;;;4.80;4.30;;;7.80;99.90;;;;;;5034041;28;20444;-55
2022/01/17 11:29:08;;;;;;;6.40;5.67;;;7.90;99.90;;;;;;5034712;28;20503;-55
2022/01/17 11:31:33;;;;;;;5.90;5.30;;;7.80;99.90;;;;;;5034234;28;20426;-55
2022/01/17 11:33:59;;;;;;;6.03;5.17;;;7.70;99.90;;;;;;5034075;28;20931;-57
2022/01/17 11:36:26;;;;;;;7.20;6.20;;;7.60;99.90;;;;;;5016342;28;20179;-57
2022/01/17 11:38:54;;;;;;;8.80;7.90;;;7.60;99.90;;;;;;5034003;28;20214;-57
2022/01/17 11:41:26;;;;;;;9.00;8.07;;;7.20;99.90;;;;;;5041613;28;20460;-57
2022/01/17 11:44:00;;;;;;;8.67;7.80;;;7.00;99.90;;;;;;5053957;28;20396;-53
2022/01/17 11:46:32;;;;;;;7.63;6.83;;;7.00;99.90;;;;;;5053763;28;20402;-57
2022/01/17 11:49:07;;;;;;;7.40;6.67;;;7.00;99.90;;;;;;5053978;28;20398;-58
2022/01/17 11:51:40;;;;;;;7.57;6.87;;;7.10;99.90;;;;;;5053554;28;20517;-56
2022/01/17 11:54:26;;;;;;;7.33;6.63;;;7.10;99.90;;;;;;5054105;28;20904;-55
2022/01/17 11:56:52;;;;;;;6.33;5.80;;;7.20;99.90;;;;;;5053799;28;20477;-58
2022/01/17 11:59:34;;;;;;;6.47;5.87;;;7.40;99.90;;;;;;5052372;28;20814;-58
2022/01/17 12:02:49;;;;;;;6.53;5.93;;;7.30;99.90;;;;;;5053763;28;20950;-59
2022/01/17 12:05:15;;;;;;;6.30;5.50;;;7.40;99.90;;;;;;5037159;28;20424;-56
2022/01/17 12:07:54;;;;;;;5.93;5.33;;;7.40;99.90;;;;;;5053392;28;20408;-58
2022/01/17 12:10:25;;;;;;;8.53;5.73;;;7.30;99.90;;;;;;5053910;28;20273;-58
2022/01/17 12:13:16;;;;;;;6.27;5.20;;;7.40;99.90;;;;;;5053288;28;20411;-54
2022/01/17 12:16:17;;;;;;;5.27;4.77;;;7.40;99.90;;;;;;5001781;28;20931;-57
2022/01/17 12:18:50;;;;;;;5.43;4.80;;;7.30;99.90;;;;;;5014254;28;20449;-55
2022/01/17 12:21:30;;;;;;;4.20;3.77;;;7.20;99.90;;;;;;5013575;28;20430;-55
2022/01/17 12:24:21;;;;;;;4.30;3.90;;;7.30;99.90;;;;;;5013809;28;20772;-57
2022/01/17 12:26:53;;;;;;;6.30;4.17;;;7.50;99.90;;;;;;4995517;28;20405;-57
2022/01/17 12:29:36;;;;;;;4.27;3.87;;;7.80;99.90;;;;;;5012798;28;20414;-55
2022/01/17 12:32:04;;;;;;;4.07;3.67;;;7.80;99.90;;;;;;5014594;28;20984;-58
2022/01/17 12:34:40;;;;;;;4.30;3.90;;;7.80;99.90;;;;;;5013447;28;20505;-58
2022/01/17 12:37:35;;;;;;;4.70;4.20;;;7.60;99.90;;;;;;5013279;28;20421;-58
2022/01/17 12:40:08;;;;;;;4.40;3.50;;;7.40;99.90;;;;;;5013315;28;20396;-57
2022/01/17 12:43:06;;;;;;;5.23;4.20;;;7.40;99.90;;;;;;5049213;28;20453;-56
2022/01/17 12:45:37;;;;;;;5.33;4.83;;;7.50;99.90;;;;;;5052949;28;20403;-58
2022/01/17 12:48:09;;;;;;;5.30;4.80;;;7.60;99.90;;;;;;5031490;28;20476;-58
2022/01/17 12:50:37;;;;;;;5.83;5.20;;;7.60;99.90;;;;;;5032811;28;20433;-58
2022/01/17 12:53:05;;;;;;;4.93;4.43;;;7.70;99.90;;;;;;5033149;28;20419;-58
2022/01/17 12:55:43;;;;;;;5.20;4.37;;;7.90;99.90;;;;;;5033018;28;20503;-58
2022/01/17 12:58:27;;;;;;;5.83;5.10;;;8.10;99.90;;;;;;5031717;28;20483;-59
2022/01/17 13:01:02;;;;;;;6.20;5.60;;;8.10;99.90;;;;;;5032359;28;20453;-60
2022/01/17 13:03:35;;;;;;;5.43;4.93;;;8.10;99.90;;;;;;5032905;28;20408;-59
2022/01/17 13:06:03;;;;;;;6.10;5.23;;;7.90;99.90;;;;;;5033209;28;20417;-57
2022/01/17 13:08:29;;;;;;;3.87;3.37;;;7.90;99.90;;;;;;5033176;28;20449;-58
2022/01/17 13:10:55;;;;;;;5.30;4.80;;;7.80;99.90;;;;;;5037271;28;20486;-58
2022/01/17 13:13:21;;;;;;;4.90;4.40;;;7.80;99.90;;;;;;5052378;28;20180;-53
2022/01/17 13:16:07;;;;;;;5.10;4.00;;;7.90;99.90;;;;;;5052527;28;20408;-56
2022/01/17 13:18:33;;;;;;;4.30;3.90;;;7.80;99.90;;;;;;5014076;28;20469;-57
2022/01/17 13:21:01;;;;;;;3.73;3.37;;;7.60;99.90;;;;;;5013028;28;20429;-59
2022/01/17 13:23:58;;;;;;;4.10;3.60;;;7.50;99.90;;;;;;5013461;28;20447;-58